Time;durP1;ratioP1;P1;durP2;ratioP2;P2;SDS_P1;SDS_P2;PMS_P1;PMS_P2;Temp;Humidity;BMP_temperature;BMP_pressure;BME280_temperature;BME280_humidity;BME280_pressure;Samples;Min_cycle;Max_cycle;Signal;HPM_P1;HPM_P2
2023/09/13 00:02:41;;;;;;;;;;;;;;;;;;5111808;27;19916;-67
2023/09/13 00:05:07;;;;;;;;;;;;;;;;;;5111347;28;20011;-69
2023/09/13 00:08:00;;;;;;;;;;;;;;;;;;5112177;27;19938;-68
2023/09/13 00:11:43;;;;;;;;;;;;;;;;;;5091472;27;19916;-69
2023/09/13 00:16:01;;;;;;;;;;;;;;;;;;5133114;27;20096;-70
2023/09/13 00:25:32;;;;;;;;;;;;;;;;;;5112269;27;20414;-68
2023/09/13 00:27:58;;;;;;;;;;;;;;;;;;5111326;28;20002;-68
2023/09/13 00:30:43;;;;;;;;;;;;;;;;;;5092278;28;19917;-68
2023/09/13 00:33:09;;;;;;;;;;;;;;;;;;5090992;28;19917;-68
2023/09/13 00:35:35;;;;;;;;;;;;;;;;;;5090058;28;20372;-68
2023/09/13 00:39:52;;;;;;;;;;;;;;;;;;5112203;27;19916;-69
2023/09/13 00:42:18;;;;;;;;;;;;;;;;;;5110060;28;20007;-68
2023/09/13 00:44:44;;;;;;;;;;;;;;;;;;5111682;28;19909;-68
2023/09/13 00:48:43;;;;;;;;;;;;;;;;;;5091250;28;20372;-70
2023/09/13 00:51:09;;;;;;;;;;;;;;;;;;5091394;28;20015;-70
2023/09/13 00:53:35;;;;;;;;;;;;;;;;;;5091394;28;20364;-70
2023/09/13 00:56:02;;;;;;;;;;;;;;;;;;5090891;28;19909;-70
2023/09/13 01:02:28;;;;;;;;;;;;;;;;;;5111530;27;20398;-70
2023/09/13 01:04:54;;;;;;;;;;;;;;;;;;5111705;28;19999;-67
2023/09/13 01:07:20;;;;;;;;;;;;;;;;;;5111707;28;19908;-68
2023/09/13 01:09:46;;;;;;;;;;;;;;;;;;5111318;28;20390;-68
2023/09/13 01:12:12;;;;;;;;;;;;;;;;;;5111597;28;20402;-68
2023/09/13 01:14:38;;;;;;;;;;;;;;;;;;5111561;28;20265;-69
2023/09/13 01:18:51;;;;;;;;;;;;;;;;;;5112581;27;19912;-70
2023/09/13 01:21:17;;;;;;;;;;;;;;;;;;5111941;28;20014;-70
2023/09/13 01:23:43;;;;;;;;;;;;;;;;;;5111477;28;19912;-70
2023/09/13 01:26:09;;;;;;;;;;;;;;;;;;5111637;28;19912;-70
2023/09/13 01:28:35;;;;;;;;;;;;;;;;;;5111569;28;19939;-70
2023/09/13 01:31:01;;;;;;;;;;;;;;;;;;5111271;28;19915;-67
2023/09/13 01:33:27;;;;;;;;;;;;;;;;;;5111551;28;20376;-67
2023/09/13 01:35:53;;;;;;;;;;;;;;;;;;5110186;28;20360;-69
2023/09/13 01:38:19;;;;;;;;;;;;;;;;;;5111022;28;20396;-69
2023/09/13 01:40:45;;;;;;;;;;;;;;;;;;5111424;28;20366;-69
2023/09/13 01:43:11;;;;;;;;;;;;;;;;;;5111742;28;20392;-69
2023/09/13 01:45:37;;;;;;;;;;;;;;;;;;5110883;28;19974;-68
2023/09/13 01:48:03;;;;;;;;;;;;;;;;;;5111253;28;19908;-68
2023/09/13 01:50:29;;;;;;;;;;;;;;;;;;5110876;28;19919;-68
2023/09/13 01:54:44;;;;;;;;;;;;;;;;;;5112594;27;20386;-70
2023/09/13 01:57:10;;;;;;;;;;;;;;;;;;5110463;28;20015;-70
2023/09/13 01:59:36;;;;;;;;;;;;;;;;;;5111349;28;20318;-70
2023/09/13 02:02:02;;;;;;;;;;;;;;;;;;5111951;28;20375;-70
2023/09/13 02:04:32;;;;;;;;;;;;;;;;;;5109899;28;19908;-70
2023/09/13 02:06:59;;;;;;;;;;;;;;;;;;5110286;28;19932;-67
2023/09/13 02:14:51;;;;;;;;;;;;;;;;;;5111864;27;19922;-70
2023/09/13 02:17:17;;;;;;;;;;;;;;;;;;5111697;28;19998;-68
2023/09/13 02:19:43;;;;;;;;;;;;;;;;;;5111299;28;19954;-68
2023/09/13 02:22:09;;;;;;;;;;;;;;;;;;5111609;28;19949;-68
2023/09/13 02:24:36;;;;;;;;;;;;;;;;;;5111621;28;19969;-69
2023/09/13 02:27:02;;;;;;;;;;;;;;;;;;5111134;28;20431;-69
2023/09/13 02:29:28;;;;;;;;;;;;;;;;;;5111562;28;19948;-69
2023/09/13 02:31:54;;;;;;;;;;;;;;;;;;5111548;28;19909;-69
2023/09/13 02:34:20;;;;;;;;;;;;;;;;;;5111067;28;19916;-69
2023/09/13 02:36:47;;;;;;;;;;;;;;;;;;5111423;28;19916;-69
2023/09/13 02:39:14;;;;;;;;;;;;;;;;;;5111362;28;19908;-69
2023/09/13 02:41:40;;;;;;;;;;;;;;;;;;5110890;28;19915;-69
2023/09/13 02:44:06;;;;;;;;;;;;;;;;;;5111290;28;20006;-69
2023/09/13 02:46:32;;;;;;;;;;;;;;;;;;5111206;28;19908;-69
2023/09/13 02:48:58;;;;;;;;;;;;;;;;;;5110767;28;19915;-69
2023/09/13 02:51:24;;;;;;;;;;;;;;;;;;5109868;28;19948;-69
2023/09/13 02:53:50;;;;;;;;;;;;;;;;;;5110607;28;19923;-69
2023/09/13 02:56:16;;;;;;;;;;;;;;;;;;5110971;28;20332;-69
2023/09/13 02:58:41;;;;;;;;;;;;;;;;;;5110936;28;20313;-69
2023/09/13 03:01:07;;;;;;;;;;;;;;;;;;5110562;28;19931;-69
2023/09/13 03:03:33;;;;;;;;;;;;;;;;;;5109503;28;20344;-68
2023/09/13 03:05:59;;;;;;;;;;;;;;;;;;5110822;28;20283;-68
2023/09/13 03:08:25;;;;;;;;;;;;;;;;;;5110369;28;19914;-69
2023/09/13 03:10:51;;;;;;;;;;;;;;;;;;5110900;28;19908;-69
2023/09/13 03:13:17;;;;;;;;;;;;;;;;;;5110361;28;19927;-69
2023/09/13 03:15:43;;;;;;;;;;;;;;;;;;5110392;28;19960;-69
2023/09/13 03:18:09;;;;;;;;;;;;;;;;;;5110494;28;19908;-70
2023/09/13 03:20:35;;;;;;;;;;;;;;;;;;5109184;28;19908;-70
2023/09/13 03:23:01;;;;;;;;;;;;;;;;;;5108805;28;19953;-69
2023/09/13 03:25:27;;;;;;;;;;;;;;;;;;5099618;28;19908;-69
2023/09/13 03:27:53;;;;;;;;;;;;;;;;;;5095540;28;19996;-69
2023/09/13 03:30:19;;;;;;;;;;;;;;;;;;5096427;28;19908;-69
2023/09/13 03:32:45;;;;;;;;;;;;;;;;;;5096600;28;19912;-70
2023/09/13 03:35:11;;;;;;;;;;;;;;;;;;5096658;28;20398;-70
2023/09/13 03:37:37;;;;;;;;;;;;;;;;;;5096331;28;19915;-69
2023/09/13 03:40:05;;;;;;;;;;;;;;;;;;5096608;28;19915;-69
2023/09/13 03:42:31;;;;;;;;;;;;;;;;;;5096489;28;20358;-68
2023/09/13 03:44:57;;;;;;;;;;;;;;;;;;5096098;28;19958;-68
2023/09/13 03:47:23;;;;;;;;;;;;;;;;;;5096463;28;19908;-70
2023/09/13 03:49:49;;;;;;;;;;;;;;;;;;5096368;28;19908;-68
2023/09/13 03:52:14;;;;;;;;;;;;;;;;;;5094648;28;19908;-69
2023/09/13 03:54:40;;;;;;;;;;;;;;;;;;5096168;28;19946;-68
2023/09/13 03:57:06;;;;;;;;;;;;;;;;;;5094374;28;19908;-68
2023/09/13 03:59:32;;;;;;;;;;;;;;;;;;5096239;28;20002;-69
2023/09/13 04:01:58;;;;;;;;;;;;;;;;;;5092913;28;19912;-68
2023/09/13 04:04:24;;;;;;;;;;;;;;;;;;5080277;28;19920;-68
2023/09/13 04:06:50;;;;;;;;;;;;;;;;;;5081784;28;19913;-69
2023/09/13 04:09:18;;;;;;;;;;;;;;;;;;5102600;28;19994;-70
2023/09/13 04:11:43;;;;;;;;;;;;;;;;;;5114738;28;19915;-70
2023/09/13 04:14:10;;;;;;;;;;;;;;;;;;5115234;28;19920;-69
2023/09/13 04:16:36;;;;;;;;;;;;;;;;;;5115785;28;20285;-69
2023/09/13 04:19:02;;;;;;;;;;;;;;;;;;5113612;28;19995;-69
2023/09/13 04:21:28;;;;;;;;;;;;;;;;;;5111622;28;19908;-70
2023/09/13 04:23:54;;;;;;;;;;;;;;;;;;5114019;28;19912;-70
2023/09/13 04:26:23;;;;;;;;;;;;;;;;;;5113785;28;19957;-68
2023/09/13 04:28:49;;;;;;;;;;;;;;;;;;5112471;28;20227;-68
2023/09/13 04:31:15;;;;;;;;;;;;;;;;;;5112729;28;19918;-68
2023/09/13 04:33:41;;;;;;;;;;;;;;;;;;5115192;28;19972;-69
2023/09/13 04:36:06;;;;;;;;;;;;;;;;;;5112847;28;19907;-69
2023/09/13 04:38:32;;;;;;;;;;;;;;;;;;5114620;28;19908;-69
2023/09/13 04:40:58;;;;;;;;;;;;;;;;;;5115375;28;19939;-69
2023/09/13 04:43:24;;;;;;;;;;;;;;;;;;5115252;28;19908;-69
2023/09/13 04:45:50;;;;;;;;;;;;;;;;;;5114933;28;20379;-68
2023/09/13 04:48:16;;;;;;;;;;;;;;;;;;5112607;28;19908;-69
2023/09/13 04:50:42;;;;;;;;;;;;;;;;;;5113496;28;19915;-69
2023/09/13 04:53:08;;;;;;;;;;;;;;;;;;5112063;28;19951;-69
2023/09/13 04:55:34;;;;;;;;;;;;;;;;;;5111593;28;19914;-68
2023/09/13 04:58:00;;;;;;;;;;;;;;;;;;5112248;28;19962;-69
2023/09/13 05:00:26;;;;;;;;;;;;;;;;;;5113722;28;19921;-69
2023/09/13 05:02:52;;;;;;;;;;;;;;;;;;5114577;27;19908;-69
2023/09/13 05:05:18;;;;;;;;;;;;;;;;;;5115274;28;19907;-69
2023/09/13 05:07:44;;;;;;;;;;;;;;;;;;5115071;27;19914;-69
2023/09/13 05:10:10;;;;;;;;;;;;;;;;;;5115461;28;19908;-69
2023/09/13 05:12:36;;;;;;;;;;;;;;;;;;5114879;28;20002;-69
2023/09/13 05:15:02;;;;;;;;;;;;;;;;;;5114852;28;19990;-69
2023/09/13 05:17:29;;;;;;;;;;;;;;;;;;5113630;28;19908;-69
2023/09/13 05:19:55;;;;;;;;;;;;;;;;;;5114599;28;19912;-69
2023/09/13 05:23:08;;;;;;;;;;;;;;;;;;5090428;27;19923;-69
2023/09/13 05:25:34;;;;;;;;;;;;;;;;;;5089188;28;19913;-68
2023/09/13 05:28:00;;;;;;;;;;;;;;;;;;5082823;28;20408;-70
2023/09/13 05:30:27;;;;;;;;;;;;;;;;;;5086009;28;19918;-74
2023/09/13 05:34:30;;;;;;;;;;;;;;;;;;5080453;27;2527187;-68
2023/09/13 05:36:56;;;;;;;;;;;;;;;;;;5144499;27;19963;-71
2023/09/13 05:41:30;;;;;;;;;;;;;;;;;;5108117;27;19916;-67
2023/09/13 05:46:01;;;;;;;;;;;;;;;;;;5080129;27;19916;-68
2023/09/13 05:48:27;;;;;;;;;;;;;;;;;;5077963;28;19958;-70
2023/09/13 05:50:53;;;;;;;;;;;;;;;;;;5084638;28;19916;-68
2023/09/13 05:54:19;;;;;;;;;;;;;;;;;;5113944;27;19922;-68
2023/09/13 06:00:23;;;;;;;;;;;;;;;;;;5106154;27;19923;-68
2023/09/13 06:02:50;;;;;;;;;;;;;;;;;;5103740;28;19916;-68
2023/09/13 06:05:16;;;;;;;;;;;;;;;;;;5105572;28;19918;-68
2023/09/13 06:09:34;;;;;;;;;;;;;;;;;;5089435;27;19912;-68
2023/09/13 06:12:01;;;;;;;;;;;;;;;;;;5089482;28;19966;-69
2023/09/13 06:15:29;;;;;;;;;;;;;;;;;;5107263;27;19928;-67
2023/09/13 06:17:55;;;;;;;;;;;;;;;;;;5107363;28;19943;-67
2023/09/13 06:20:21;;;;;;;;;;;;;;;;;;5107474;28;19912;-69
2023/09/13 06:22:47;;;;;;;;;;;;;;;;;;5108184;28;19965;-66
2023/09/13 06:25:16;;;;;;;;;;;;;;;;;;5108580;28;20329;-66
2023/09/13 06:29:17;;;;;;;;;;;;;;;;;;5082559;28;20364;-68
2023/09/13 06:32:53;;;;;;;;;;;;;;;;;;5108398;27;20300;-66
2023/09/13 06:35:19;;;;;;;;;;;;;;;;;;5108386;28;19981;-67
2023/09/13 06:37:45;;;;;;;;;;;;;;;;;;5095651;28;20490;-68
2023/09/13 06:40:11;;;;;;;;;;;;;;;;;;5100608;28;19916;-68
2023/09/13 06:43:04;;;;;;;;;;;;;;;;;;5107692;27;20577;-68
2023/09/13 06:46:23;;;;;;;;;;;;;;;;;;5108256;27;19930;-68
2023/09/13 06:48:49;;;;;;;;;;;;;;;;;;5083402;28;19920;-68
2023/09/13 06:51:16;;;;;;;;;;;;;;;;;;5074692;28;19966;-68
2023/09/13 06:53:42;;;;;;;;;;;;;;;;;;5070494;28;19921;-67
2023/09/13 06:56:08;;;;;;;;;;;;;;;;;;5089798;28;19920;-67
2023/09/13 06:58:49;;;;;;;;;;;;;;;;;;5056939;28;19924;-68
2023/09/13 07:02:06;;;;;;;;;;;;;;;;;;5060205;28;19926;-67
2023/09/13 07:04:32;;;;;;;;;;;;;;;;;;5054656;28;19916;-68
2023/09/13 07:11:20;;;;;;;;;;;;;;;;;;5051403;28;19917;-67
2023/09/13 07:16:48;;;;;;;;;;;;;;;;;;5104350;27;19920;-69
2023/09/13 07:19:14;;;;;;;;;;;;;;;;;;5090485;28;19916;-69
2023/09/13 07:21:40;;;;;;;;;;;;;;;;;;5090951;27;20396;-69
2023/09/13 07:24:06;;;;;;;;;;;;;;;;;;5088581;27;19920;-70
2023/09/13 07:28:52;;;;;;;;;;;;;;;;;;5083066;27;20987;-69
2023/09/13 07:31:18;;;;;;;;;;;;;;;;;;5044902;28;19913;-68
2023/09/13 07:35:53;;;;;;;;;;;;;;;;;;5058555;27;19935;-66
2023/09/13 07:38:19;;;;;;;;;;;;;;;;;;5044967;28;19921;-67
2023/09/13 07:40:45;;;;;;;;;;;;;;;;;;5043908;28;19963;-67
2023/09/13 07:47:59;;;;;;;;;;;;;;;;;;5073369;27;19920;-69
2023/09/13 07:50:25;;;;;;;;;;;;;;;;;;5071999;28;20010;-69
2023/09/13 07:52:51;;;;;;;;;;;;;;;;;;5075627;28;19916;-68
2023/09/13 07:55:17;;;;;;;;;;;;;;;;;;5074731;28;19920;-67
2023/09/13 07:57:43;;;;;;;;;;;;;;;;;;5084044;28;19952;-68
2023/09/13 08:00:09;;;;;;;;;;;;;;;;;;5088750;28;19913;-68
2023/09/13 08:02:35;;;;;;;;;;;;;;;;;;5122088;28;19916;-69
2023/09/13 08:05:01;;;;;;;;;;;;;;;;;;5085488;28;19943;-69
2023/09/13 08:07:27;;;;;;;;;;;;;;;;;;5081594;28;19934;-68
2023/09/13 08:09:53;;;;;;;;;;;;;;;;;;5081101;28;19966;-68
2023/09/13 08:12:19;;;;;;;;;;;;;;;;;;5083137;28;19912;-71
2023/09/13 08:14:45;;;;;;;;;;;;;;;;;;5083405;28;19952;-68
2023/09/13 08:17:11;;;;;;;;;;;;;;;;;;5084387;28;19996;-68
2023/09/13 08:21:32;;;;;;;;;;;;;;;;;;5086430;27;19932;-68
2023/09/13 08:24:57;;;;;;;;;;;;;;;;;;5103048;27;19920;-66
2023/09/13 08:27:23;;;;;;;;;;;;;;;;;;5104767;28;19912;-68
2023/09/13 08:29:49;;;;;;;;;;;;;;;;;;5107395;28;19919;-69
2023/09/13 08:32:15;;;;;;;;;;;;;;;;;;5110784;28;19959;-70
2023/09/13 08:34:41;;;;;;;;;;;;;;;;;;5123779;28;19919;-75
2023/09/13 08:38:58;;;;;;;;;;;;;;;;;;5089017;27;20396;-72
2023/09/13 08:42:06;;;;;;;;;;;;;;;;;;5089003;27;20415;-72
2023/09/13 08:44:32;;;;;;;;;;;;;;;;;;5090606;28;20006;-69
2023/09/13 08:46:58;;;;;;;;;;;;;;;;;;5089666;28;19948;-68
2023/09/13 08:49:24;;;;;;;;;;;;;;;;;;5089679;28;19908;-67
2023/09/13 08:51:49;;;;;;;;;;;;;;;;;;5089301;28;19916;-67
2023/09/13 08:54:15;;;;;;;;;;;;;;;;;;5083820;28;19916;-67
2023/09/13 08:56:45;;;;;;;;;;;;;;;;;;5087407;28;20339;-68
2023/09/13 08:59:11;;;;;;;;;;;;;;;;;;5087371;28;19912;-68
2023/09/13 09:05:20;;;;;;;;;;;;;;;;;;5115836;27;19915;-67
2023/09/13 09:07:46;;;;;;;;;;;;;;;;;;5113622;28;19957;-67
2023/09/13 09:10:12;;;;;;;;;;;;;;;;;;5109263;28;19916;-68
2023/09/13 09:12:38;;;;;;;;;;;;;;;;;;5106870;28;19908;-70
2023/09/13 09:15:04;;;;;;;;;;;;;;;;;;5117577;28;20257;-69
2023/09/13 09:17:30;;;;;;;;;;;;;;;;;;5120784;27;19916;-71
2023/09/13 09:19:56;;;;;;;;;;;;;;;;;;5110528;28;19962;-70
2023/09/13 09:22:22;;;;;;;;;;;;;;;;;;5109896;28;19912;-69
2023/09/13 09:26:53;;;;;;;;;;;;;;;;;;5089787;27;19926;-68
2023/09/13 09:29:20;;;;;;;;;;;;;;;;;;5066106;28;19917;-68
2023/09/13 09:31:46;;;;;;;;;;;;;;;;;;5066338;28;20270;-69
2023/09/13 09:34:12;;;;;;;;;;;;;;;;;;5070340;28;20004;-68
2023/09/13 09:36:38;;;;;;;;;;;;;;;;;;5067519;28;19917;-68
2023/09/13 09:39:04;;;;;;;;;;;;;;;;;;5071068;28;19966;-69
2023/09/13 09:41:30;;;;;;;;;;;;;;;;;;5081800;28;19912;-70
2023/09/13 09:43:56;;;;;;;;;;;;;;;;;;5065829;28;19916;-70
2023/09/13 09:46:22;;;;;;;;;;;;;;;;;;5075164;28;20373;-70
2023/09/13 09:48:48;;;;;;;;;;;;;;;;;;5081417;28;19913;-70
2023/09/13 09:51:14;;;;;;;;;;;;;;;;;;5080508;28;20412;-71
2023/09/13 09:53:40;;;;;;;;;;;;;;;;;;5079255;28;20018;-72
2023/09/13 09:56:06;;;;;;;;;;;;;;;;;;5079366;28;19916;-72
2023/09/13 09:58:32;;;;;;;;;;;;;;;;;;5075335;28;19921;-72
2023/09/13 10:00:58;;;;;;;;;;;;;;;;;;5085057;28;20388;-69
2023/09/13 10:03:23;;;;;;;;;;;;;;;;;;5070121;28;20610;-71
2023/09/13 10:05:49;;;;;;;;;;;;;;;;;;5079678;28;20408;-71
2023/09/13 10:08:15;;;;;;;;;;;;;;;;;;5066183;28;19913;-70
2023/09/13 10:10:41;;;;;;;;;;;;;;;;;;5065062;28;19919;-72
2023/09/13 10:13:07;;;;;;;;;;;;;;;;;;5064318;28;19916;-73
2023/09/13 10:15:33;;;;;;;;;;;;;;;;;;5066056;28;19916;-72
2023/09/13 10:17:59;;;;;;;;;;;;;;;;;;5064748;28;19913;-72
2023/09/13 10:20:25;;;;;;;;;;;;;;;;;;5065751;28;19923;-73
2023/09/13 10:22:51;;;;;;;;;;;;;;;;;;5067034;28;19908;-71
2023/09/13 10:25:17;;;;;;;;;;;;;;;;;;5073896;28;19974;-73
2023/09/13 10:27:43;;;;;;;;;;;;;;;;;;5088875;28;19917;-71
2023/09/13 10:30:10;;;;;;;;;;;;;;;;;;5089146;28;19912;-72
2023/09/13 10:32:36;;;;;;;;;;;;;;;;;;5087140;28;19921;-72
2023/09/13 10:35:03;;;;;;;;;;;;;;;;;;5088074;28;19921;-72
2023/09/13 10:37:29;;;;;;;;;;;;;;;;;;5079146;28;19909;-72
2023/09/13 10:39:55;;;;;;;;;;;;;;;;;;5056486;28;19912;-73
2023/09/13 10:42:21;;;;;;;;;;;;;;;;;;5075347;28;19977;-72
2023/09/13 10:44:47;;;;;;;;;;;;;;;;;;5065882;28;19945;-73
2023/09/13 10:47:13;;;;;;;;;;;;;;;;;;5075559;28;19924;-71
2023/09/13 10:49:39;;;;;;;;;;;;;;;;;;5086610;28;19912;-74
2023/09/13 10:52:05;;;;;;;;;;;;;;;;;;5095699;28;19915;-74
2023/09/13 10:54:31;;;;;;;;;;;;;;;;;;5094530;28;19916;-75
2023/09/13 10:56:57;;;;;;;;;;;;;;;;;;5074604;28;19908;-75
2023/09/13 10:59:23;;;;;;;;;;;;;;;;;;5092984;28;19912;-74
2023/09/13 11:01:49;;;;;;;;;;;;;;;;;;5076015;28;19908;-76
2023/09/13 11:04:15;;;;;;;;;;;;;;;;;;5074244;28;19908;-75
2023/09/13 11:06:41;;;;;;;;;;;;;;;;;;5093427;28;19924;-74
2023/09/13 11:09:07;;;;;;;;;;;;;;;;;;5094397;28;19908;-77
2023/09/13 11:11:33;;;;;;;;;;;;;;;;;;5094527;28;19919;-73
2023/09/13 11:13:59;;;;;;;;;;;;;;;;;;5092557;28;19999;-72
2023/09/13 11:16:25;;;;;;;;;;;;;;;;;;5085743;28;19963;-72
2023/09/13 11:18:52;;;;;;;;;;;;;;;;;;5064458;28;19962;-72
2023/09/13 11:21:18;;;;;;;;;;;;;;;;;;5072250;28;20284;-73
2023/09/13 11:23:44;;;;;;;;;;;;;;;;;;5082738;28;19912;-72
2023/09/13 11:26:13;;;;;;;;;;;;;;;;;;5073532;28;19928;-73
2023/09/13 11:28:39;;;;;;;;;;;;;;;;;;5087473;28;20135;-73
2023/09/13 11:31:05;;;;;;;;;;;;;;;;;;5079807;28;20359;-76
2023/09/13 11:33:31;;;;;;;;;;;;;;;;;;5071962;28;19944;-70
2023/09/13 11:35:57;;;;;;;;;;;;;;;;;;5072380;28;19909;-70
2023/09/13 11:38:23;;;;;;;;;;;;;;;;;;5072363;28;19908;-72
2023/09/13 11:40:49;;;;;;;;;;;;;;;;;;5074127;28;19919;-73
2023/09/13 11:43:15;;;;;;;;;;;;;;;;;;5074396;28;20376;-73
2023/09/13 11:45:41;;;;;;;;;;;;;;;;;;5074996;28;19928;-70
2023/09/13 11:48:07;;;;;;;;;;;;;;;;;;5075027;28;19917;-72
2023/09/13 11:50:33;;;;;;;;;;;;;;;;;;5073021;28;20041;-69
2023/09/13 11:52:59;;;;;;;;;;;;;;;;;;5077315;28;19927;-70
2023/09/13 11:55:25;;;;;;;;;;;;;;;;;;5075853;28;20364;-70
2023/09/13 11:57:51;;;;;;;;;;;;;;;;;;5092904;28;20449;-70
2023/09/13 12:00:19;;;;;;;;;;;;;;;;;;5090272;28;20410;-71
2023/09/13 12:02:45;;;;;;;;;;;;;;;;;;5074074;28;19912;-71
2023/09/13 12:05:11;;;;;;;;;;;;;;;;;;5081399;28;19974;-72
2023/09/13 12:07:37;;;;;;;;;;;;;;;;;;5087590;28;20427;-72
2023/09/13 12:10:03;;;;;;;;;;;;;;;;;;5084463;28;20283;-72
2023/09/13 12:12:29;;;;;;;;;;;;;;;;;;5094477;28;19908;-72
2023/09/13 12:14:55;;;;;;;;;;;;;;;;;;5085216;28;20295;-74
2023/09/13 12:17:21;;;;;;;;;;;;;;;;;;5090541;28;19913;-72
2023/09/13 12:19:47;;;;;;;;;;;;;;;;;;5086021;28;19916;-72
2023/09/13 12:22:14;;;;;;;;;;;;;;;;;;5074050;28;19920;-72
2023/09/13 12:24:40;;;;;;;;;;;;;;;;;;5073257;28;19921;-73
2023/09/13 12:27:06;;;;;;;;;;;;;;;;;;5073963;28;19908;-77
2023/09/13 12:29:32;;;;;;;;;;;;;;;;;;5074509;28;20265;-76
2023/09/13 12:31:59;;;;;;;;;;;;;;;;;;5075898;28;19912;-72
2023/09/13 12:34:25;;;;;;;;;;;;;;;;;;5073791;28;19916;-71
2023/09/13 12:36:51;;;;;;;;;;;;;;;;;;5055125;28;19913;-74
2023/09/13 12:39:17;;;;;;;;;;;;;;;;;;5076912;28;19955;-73
2023/09/13 12:41:44;;;;;;;;;;;;;;;;;;5076309;28;19935;-71
2023/09/13 12:44:10;;;;;;;;;;;;;;;;;;5071638;28;19916;-72
2023/09/13 12:46:36;;;;;;;;;;;;;;;;;;5084634;28;20005;-72
2023/09/13 12:49:03;;;;;;;;;;;;;;;;;;5071046;28;19920;-73
2023/09/13 12:51:30;;;;;;;;;;;;;;;;;;5069921;28;19999;-73
2023/09/13 12:53:56;;;;;;;;;;;;;;;;;;5072733;28;19955;-73
2023/09/13 12:56:22;;;;;;;;;;;;;;;;;;5073514;28;20292;-72
2023/09/13 12:58:48;;;;;;;;;;;;;;;;;;5072326;28;19916;-72
2023/09/13 13:01:14;;;;;;;;;;;;;;;;;;5076272;28;19908;-76
2023/09/13 13:03:40;;;;;;;;;;;;;;;;;;5093047;28;19912;-75
2023/09/13 13:06:06;;;;;;;;;;;;;;;;;;5091090;28;19924;-75
2023/09/13 13:08:32;;;;;;;;;;;;;;;;;;5093068;28;19955;-73
2023/09/13 13:10:58;;;;;;;;;;;;;;;;;;5093058;28;19915;-72
2023/09/13 13:13:24;;;;;;;;;;;;;;;;;;5092529;28;19999;-74
2023/09/13 13:15:50;;;;;;;;;;;;;;;;;;5093385;28;19997;-74
2023/09/13 13:18:16;;;;;;;;;;;;;;;;;;5075466;28;19908;-75
2023/09/13 13:20:42;;;;;;;;;;;;;;;;;;5093493;28;19914;-74
2023/09/13 13:23:08;;;;;;;;;;;;;;;;;;5093026;28;19908;-74
2023/09/13 13:25:34;;;;;;;;;;;;;;;;;;5075320;28;19920;-74
2023/09/13 13:28:00;;;;;;;;;;;;;;;;;;5093574;28;19908;-75
2023/09/13 13:30:26;;;;;;;;;;;;;;;;;;5093951;28;19915;-76
2023/09/13 13:32:52;;;;;;;;;;;;;;;;;;5093900;28;19955;-75
2023/09/13 13:35:18;;;;;;;;;;;;;;;;;;5075281;28;19915;-76
2023/09/13 13:37:44;;;;;;;;;;;;;;;;;;5075804;28;19909;-75
2023/09/13 13:40:10;;;;;;;;;;;;;;;;;;5091926;28;20003;-75
2023/09/13 13:42:36;;;;;;;;;;;;;;;;;;5091827;28;19982;-75
2023/09/13 13:45:02;;;;;;;;;;;;;;;;;;5091717;28;19923;-75
2023/09/13 13:47:28;;;;;;;;;;;;;;;;;;5091875;28;19923;-75
2023/09/13 13:49:54;;;;;;;;;;;;;;;;;;5091279;28;20287;-75
2023/09/13 13:52:20;;;;;;;;;;;;;;;;;;5091857;28;19908;-75
2023/09/13 13:54:46;;;;;;;;;;;;;;;;;;5093336;28;19915;-75
2023/09/13 13:57:13;;;;;;;;;;;;;;;;;;5093458;28;19908;-76
2023/09/13 13:59:39;;;;;;;;;;;;;;;;;;5093779;28;19915;-76
2023/09/13 14:02:06;;;;;;;;;;;;;;;;;;5075566;28;19908;-75
2023/09/13 14:04:32;;;;;;;;;;;;;;;;;;5093833;28;19911;-76
2023/09/13 14:06:58;;;;;;;;;;;;;;;;;;5075643;28;19965;-76
2023/09/13 14:09:24;;;;;;;;;;;;;;;;;;5093325;28;19912;-76
2023/09/13 14:11:49;;;;;;;;;;;;;;;;;;5076508;28;19915;-76
2023/09/13 14:14:18;;;;;;;;;;;;;;;;;;5097747;28;19995;-76
2023/09/13 14:16:44;;;;;;;;;;;;;;;;;;5079272;28;20420;-76
2023/09/13 14:19:11;;;;;;;;;;;;;;;;;;5098276;28;19958;-76
2023/09/13 14:21:37;;;;;;;;;;;;;;;;;;5098112;28;19915;-76
2023/09/13 14:24:06;;;;;;;;;;;;;;;;;;5097720;28;19908;-76
2023/09/13 14:26:32;;;;;;;;;;;;;;;;;;5098712;28;19920;-76
2023/09/13 14:28:59;;;;;;;;;;;;;;;;;;5098454;28;19909;-76
2023/09/13 14:31:25;;;;;;;;;;;;;;;;;;5098713;28;19908;-75
2023/09/13 14:33:51;;;;;;;;;;;;;;;;;;5097153;28;19915;-76
2023/09/13 14:36:17;;;;;;;;;;;;;;;;;;5097103;28;19915;-75
2023/09/13 14:38:43;;;;;;;;;;;;;;;;;;5096917;28;20376;-75
2023/09/13 14:41:09;;;;;;;;;;;;;;;;;;5096691;28;19916;-75
2023/09/13 14:43:35;;;;;;;;;;;;;;;;;;5096986;28;19912;-75
2023/09/13 14:46:01;;;;;;;;;;;;;;;;;;5096468;28;19960;-75
2023/09/13 14:48:27;;;;;;;;;;;;;;;;;;5095285;28;19914;-76
2023/09/13 14:50:53;;;;;;;;;;;;;;;;;;5096661;28;20002;-76
2023/09/13 14:53:19;;;;;;;;;;;;;;;;;;5077044;28;19908;-76
2023/09/13 14:55:45;;;;;;;;;;;;;;;;;;5078414;28;19938;-76
2023/09/13 14:58:11;;;;;;;;;;;;;;;;;;5077935;28;20007;-75
2023/09/13 15:00:37;;;;;;;;;;;;;;;;;;5096392;28;19948;-75
2023/09/13 15:03:03;;;;;;;;;;;;;;;;;;5078311;28;19909;-75
2023/09/13 15:05:29;;;;;;;;;;;;;;;;;;5096066;28;20351;-75
2023/09/13 15:07:55;;;;;;;;;;;;;;;;;;5078717;28;19908;-75
2023/09/13 15:10:21;;;;;;;;;;;;;;;;;;5096332;28;20375;-75
2023/09/13 15:12:47;;;;;;;;;;;;;;;;;;5096109;28;20441;-75
2023/09/13 15:15:13;;;;;;;;;;;;;;;;;;5096869;28;19912;-75
2023/09/13 15:17:39;;;;;;;;;;;;;;;;;;5096465;28;19909;-76
2023/09/13 15:20:05;;;;;;;;;;;;;;;;;;5095984;28;19946;-77
2023/09/13 15:22:31;;;;;;;;;;;;;;;;;;5096215;28;19951;-75
2023/09/13 15:24:57;;;;;;;;;;;;;;;;;;5095852;28;19927;-74
2023/09/13 15:27:25;;;;;;;;;;;;;;;;;;5095864;28;20008;-74
2023/09/13 15:29:51;;;;;;;;;;;;;;;;;;5077730;28;19915;-75
2023/09/13 15:32:17;;;;;;;;;;;;;;;;;;5096102;28;19949;-74
2023/09/13 15:34:43;;;;;;;;;;;;;;;;;;5095784;28;20020;-74
2023/09/13 15:37:09;;;;;;;;;;;;;;;;;;5112088;28;19915;-74
2023/09/13 15:39:35;;;;;;;;;;;;;;;;;;5111126;28;20006;-75
2023/09/13 15:42:02;;;;;;;;;;;;;;;;;;5111005;28;19909;-75
2023/09/13 15:44:28;;;;;;;;;;;;;;;;;;5112662;28;19915;-74
2023/09/13 15:46:54;;;;;;;;;;;;;;;;;;5113273;28;19920;-74
2023/09/13 15:49:20;;;;;;;;;;;;;;;;;;5112376;28;19908;-74
2023/09/13 15:51:46;;;;;;;;;;;;;;;;;;5103221;28;19915;-74
2023/09/13 15:54:12;;;;;;;;;;;;;;;;;;5096442;28;19949;-74
2023/09/13 15:56:38;;;;;;;;;;;;;;;;;;5095521;28;19915;-74
2023/09/13 15:59:04;;;;;;;;;;;;;;;;;;5095885;28;19908;-74
2023/09/13 16:01:30;;;;;;;;;;;;;;;;;;5095201;28;19915;-74
2023/09/13 16:03:56;;;;;;;;;;;;;;;;;;5095558;28;19930;-74
2023/09/13 16:06:22;;;;;;;;;;;;;;;;;;5095243;28;20012;-74
2023/09/13 16:08:48;;;;;;;;;;;;;;;;;;5094731;28;19923;-74
2023/09/13 16:11:14;;;;;;;;;;;;;;;;;;5095398;28;19912;-75
2023/09/13 16:13:39;;;;;;;;;;;;;;;;;;5094967;28;19939;-75
2023/09/13 16:16:05;;;;;;;;;;;;;;;;;;5076443;28;19961;-74
2023/09/13 16:18:33;;;;;;;;;;;;;;;;;;5095163;28;19908;-74
2023/09/13 16:20:59;;;;;;;;;;;;;;;;;;5094931;28;19909;-74
2023/09/13 16:23:25;;;;;;;;;;;;;;;;;;5094400;28;19987;-74
2023/09/13 16:25:51;;;;;;;;;;;;;;;;;;5094594;28;19920;-74
2023/09/13 16:28:19;;;;;;;;;;;;;;;;;;5095040;28;20329;-73
2023/09/13 16:30:45;;;;;;;;;;;;;;;;;;5094574;28;19908;-74
2023/09/13 16:33:11;;;;;;;;;;;;;;;;;;5094741;28;20358;-74
2023/09/13 16:35:37;;;;;;;;;;;;;;;;;;5094026;28;20276;-74
2023/09/13 16:38:02;;;;;;;;;;;;;;;;;;5094187;28;20210;-74
2023/09/13 16:40:28;;;;;;;;;;;;;;;;;;5094558;28;19912;-73
2023/09/13 16:42:54;;;;;;;;;;;;;;;;;;5094490;28;19908;-73
2023/09/13 16:45:22;;;;;;;;;;;;;;;;;;5094081;28;19954;-73
2023/09/13 16:47:48;;;;;;;;;;;;;;;;;;5094685;28;19973;-73
2023/09/13 16:50:14;;;;;;;;;;;;;;;;;;5094358;28;19915;-73
2023/09/13 16:52:40;;;;;;;;;;;;;;;;;;5093959;28;20276;-73
2023/09/13 16:55:06;;;;;;;;;;;;;;;;;;5094258;28;19978;-74
2023/09/13 16:57:32;;;;;;;;;;;;;;;;;;5094213;28;19908;-73
2023/09/13 16:59:58;;;;;;;;;;;;;;;;;;5075685;28;20011;-73
2023/09/13 17:02:24;;;;;;;;;;;;;;;;;;5094115;28;19987;-73
2023/09/13 17:04:50;;;;;;;;;;;;;;;;;;5075341;28;19908;-72
2023/09/13 17:07:16;;;;;;;;;;;;;;;;;;5094087;28;19912;-72
2023/09/13 17:09:42;;;;;;;;;;;;;;;;;;5094139;28;19908;-72
2023/09/13 17:12:08;;;;;;;;;;;;;;;;;;5093715;28;20275;-72
2023/09/13 17:14:34;;;;;;;;;;;;;;;;;;5094137;28;19912;-72
2023/09/13 17:17:03;;;;;;;;;;;;;;;;;;5094030;28;20003;-72
2023/09/13 17:19:28;;;;;;;;;;;;;;;;;;5093679;28;20003;-73
2023/09/13 17:21:54;;;;;;;;;;;;;;;;;;5093946;28;19950;-73
2023/09/13 17:25:54;;;;;;;;;;;;;;;;;;5091314;27;19917;-72
2023/09/13 17:28:21;;;;;;;;;;;;;;;;;;5090071;28;19998;-72
2023/09/13 17:30:47;;;;;;;;;;;;;;;;;;5090066;28;19912;-73
2023/09/13 17:33:13;;;;;;;;;;;;;;;;;;5091057;28;19964;-73
2023/09/13 17:35:39;;;;;;;;;;;;;;;;;;5091290;28;19962;-73
2023/09/13 17:38:05;;;;;;;;;;;;;;;;;;5091299;28;19919;-73
2023/09/13 17:40:30;;;;;;;;;;;;;;;;;;5090781;28;19908;-73
2023/09/13 17:42:56;;;;;;;;;;;;;;;;;;5091201;28;19908;-72
2023/09/13 17:45:22;;;;;;;;;;;;;;;;;;5090940;28;19970;-72
2023/09/13 17:47:48;;;;;;;;;;;;;;;;;;5090620;28;19916;-72
2023/09/13 17:51:27;;;;;;;;;;;;;;;;;;5092195;28;20288;-73
2023/09/13 17:53:53;;;;;;;;;;;;;;;;;;5091303;28;20403;-72
2023/09/13 17:57:52;;;;;;;;;;;;;;;;;;5112229;27;20255;-72